Time;durP1;ratioP1;P1;durP2;ratioP2;P2;SDS_P1;SDS_P2;PMS_P1;PMS_P2;Temp;Humidity;BMP_temperature;BMP_pressure;BME280_temperature;BME280_humidity;BME280_pressure;Samples;Min_cycle;Max_cycle;Signal;HPM_P1;HPM_P2
2020/12/01 00:00:20;;;;;;;89.38;24.92;;;0.20;1.00;;;;;;5071181;28;20675;-70
2020/12/01 00:02:47;;;;;;;92.60;24.70;;;0.30;1.00;;;;;;5071226;28;20205;-70
2020/12/01 00:05:15;;;;;;;92.50;22.83;;;0.30;1.00;;;;;;5071356;28;20739;-70
2020/12/01 00:07:42;;;;;;;85.93;22.25;;;0.30;1.00;;;;;;5071307;28;20212;-70
2020/12/01 00:10:12;;;;;;;89.28;24.42;;;0.30;1.00;;;;;;5071136;28;20216;-70
2020/12/01 00:12:39;;;;;;;86.55;23.52;;;0.40;1.00;;;;;;5071110;28;20276;-70
2020/12/01 00:15:06;;;;;;;92.28;23.40;;;0.40;1.00;;;;;;5071439;28;20571;-70
2020/12/01 00:17:33;;;;;;;90.95;22.58;;;0.40;1.00;;;;;;5071434;28;20212;-70
2020/12/01 00:20:00;;;;;;;91.13;22.67;;;0.40;1.00;;;;;;5071090;28;20557;-70
2020/12/01 00:22:26;;;;;;;87.28;20.33;;;0.40;1.00;;;;;;5071227;28;20581;-69
2020/12/01 00:24:52;;;;;;;87.57;21.63;;;0.40;1.00;;;;;;5071236;28;20230;-69
2020/12/01 00:27:19;;;;;;;86.65;22.13;;;0.40;1.00;;;;;;5071652;28;20211;-69
2020/12/01 00:29:45;;;;;;;88.15;22.45;;;0.40;1.00;;;;;;5071095;28;20319;-69
2020/12/01 00:32:11;;;;;;;83.50;21.52;;;0.40;1.00;;;;;;5071230;28;20213;-69
2020/12/01 00:34:38;;;;;;;85.35;20.38;;;0.40;1.00;;;;;;5071146;28;20232;-69
2020/12/01 00:37:05;;;;;;;91.10;22.52;;;0.40;1.00;;;;;;5071180;28;20205;-69
2020/12/01 00:39:32;;;;;;;87.15;21.80;;;0.40;1.00;;;;;;5070854;28;20201;-69
2020/12/01 00:41:58;;;;;;;90.88;23.83;;;0.40;1.00;;;;;;5070943;28;20589;-69
2020/12/01 00:44:24;;;;;;;88.38;23.70;;;0.40;1.00;;;;;;5071077;28;20656;-69
2020/12/01 00:46:51;;;;;;;88.22;21.60;;;0.40;1.00;;;;;;5074327;28;20211;-69
2020/12/01 00:49:17;;;;;;;90.03;22.23;;;0.40;1.00;;;;;;5074405;28;20209;-69
2020/12/01 00:51:44;;;;;;;87.60;22.25;;;0.50;1.00;;;;;;5074735;28;20205;-69
2020/12/01 00:54:11;;;;;;;86.85;20.38;;;0.50;1.00;;;;;;5074366;28;20647;-69
2020/12/01 00:56:37;;;;;;;91.75;22.23;;;0.50;1.00;;;;;;5074551;28;20201;-69
2020/12/01 00:59:03;;;;;;;91.53;22.75;;;0.60;1.00;;;;;;5074503;28;20211;-69
2020/12/01 01:01:30;;;;;;;93.57;23.75;;;0.60;1.00;;;;;;5074639;28;20248;-69
2020/12/01 01:03:57;;;;;;;86.03;20.92;;;0.60;1.00;;;;;;5074093;28;20704;-69
2020/12/01 01:06:23;;;;;;;88.28;21.35;;;0.70;1.00;;;;;;5074476;28;20201;-68
2020/12/01 01:08:50;;;;;;;98.22;22.77;;;0.70;1.00;;;;;;5074005;28;20271;-69
2020/12/01 01:11:17;;;;;;;90.47;24.30;;;0.70;1.00;;;;;;5074286;28;20252;-69
2020/12/01 01:13:43;;;;;;;88.60;22.20;;;0.70;1.00;;;;;;5074242;28;20225;-69
2020/12/01 01:16:10;;;;;;;88.18;23.65;;;0.80;1.00;;;;;;5074100;28;20784;-70
2020/12/01 01:18:36;;;;;;;89.32;23.20;;;0.80;1.00;;;;;;5073931;28;20211;-70
2020/12/01 01:21:02;;;;;;;86.63;21.77;;;0.80;1.00;;;;;;5074149;28;20201;-70
2020/12/01 01:23:29;;;;;;;89.50;22.63;;;0.80;1.00;;;;;;5073672;28;20641;-70
2020/12/01 01:25:55;;;;;;;90.10;22.17;;;0.80;1.00;;;;;;5073841;28;20201;-70
2020/12/01 01:28:22;;;;;;;88.45;23.88;;;0.90;1.00;;;;;;5074210;28;20215;-70
2020/12/01 01:30:48;;;;;;;86.03;20.85;;;0.90;1.00;;;;;;5073630;28;20205;-70
2020/12/01 01:33:15;;;;;;;86.38;22.02;;;0.90;1.00;;;;;;5073643;28;20302;-70
2020/12/01 01:35:41;;;;;;;87.07;22.75;;;0.90;1.00;;;;;;5073268;28;20225;-71
2020/12/01 01:38:08;;;;;;;94.80;22.45;;;1.00;1.00;;;;;;5073734;28;20208;-70
2020/12/01 01:40:35;;;;;;;89.97;20.92;;;1.00;1.00;;;;;;5073439;28;20209;-71
2020/12/01 01:43:02;;;;;;;85.28;21.40;;;1.10;1.00;;;;;;5073622;28;20204;-71
2020/12/01 01:45:42;;;;;;;84.50;19.83;;;1.10;1.00;;;;;;5073756;28;20201;-71
2020/12/01 01:48:16;;;;;;;82.13;19.65;;;1.10;1.00;;;;;;5073646;28;20299;-71
2020/12/01 01:50:48;;;;;;;87.45;20.38;;;1.10;1.00;;;;;;5072862;28;20295;-71
2020/12/01 01:53:14;;;;;;;89.45;21.90;;;1.10;1.00;;;;;;5073524;28;20293;-71
2020/12/01 01:55:42;;;;;;;85.40;19.27;;;1.10;1.00;;;;;;5073312;28;20228;-71
2020/12/01 01:58:09;;;;;;;85.15;18.05;;;1.10;1.00;;;;;;5073169;28;20201;-71
2020/12/01 02:00:55;;;;;;;87.65;19.77;;;1.10;1.00;;;;;;5073095;28;20205;-71
2020/12/01 02:03:29;;;;;;;85.70;19.00;;;1.10;1.00;;;;;;5073105;28;20228;-71
2020/12/01 02:05:56;;;;;;;82.82;19.20;;;1.10;1.00;;;;;;5073163;28;20188;-71
2020/12/01 02:08:24;;;;;;;85.93;20.13;;;1.10;1.00;;;;;;5073204;28;20209;-71
2020/12/01 02:10:51;;;;;;;85.60;20.70;;;1.20;1.00;;;;;;5072846;28;20226;-71
2020/12/01 02:13:30;;;;;;;88.70;20.55;;;1.20;1.00;;;;;;5072927;28;20266;-71
2020/12/01 02:15:58;;;;;;;82.60;18.60;;;1.20;1.00;;;;;;5072932;28;20233;-71
2020/12/01 02:18:29;;;;;;;81.70;17.65;;;1.20;1.00;;;;;;5073352;28;20215;-71
2020/12/01 02:20:55;;;;;;;84.68;18.00;;;1.20;1.00;;;;;;5072261;28;20211;-71
2020/12/01 02:23:22;;;;;;;84.78;20.02;;;1.20;1.00;;;;;;5072798;28;20225;-71
2020/12/01 02:25:48;;;;;;;86.13;19.77;;;1.20;1.00;;;;;;5072737;28;20215;-71
2020/12/01 02:28:15;;;;;;;87.22;20.75;;;1.20;1.00;;;;;;5072704;28;20231;-72
2020/12/01 02:30:41;;;;;;;84.50;20.45;;;1.20;1.00;;;;;;5072413;28;20205;-71
2020/12/01 02:33:08;;;;;;;82.28;17.75;;;1.20;1.00;;;;;;5072615;28;20229;-71
2020/12/01 02:35:34;;;;;;;81.93;18.15;;;1.20;1.00;;;;;;5072369;28;20229;-71
2020/12/01 02:38:00;;;;;;;82.35;19.25;;;1.30;1.00;;;;;;5072487;28;20220;-71
2020/12/01 02:40:27;;;;;;;85.88;20.23;;;1.20;1.00;;;;;;5072326;28;20216;-71
2020/12/01 02:42:54;;;;;;;81.32;18.20;;;1.20;1.00;;;;;;5072274;28;20220;-71
2020/12/01 02:45:22;;;;;;;83.53;19.20;;;1.20;1.00;;;;;;5072476;28;20683;-71
2020/12/01 02:47:48;;;;;;;81.15;19.27;;;1.20;1.00;;;;;;5072275;28;20213;-72
2020/12/01 02:50:15;;;;;;;83.68;18.33;;;1.20;1.00;;;;;;5071892;28;20252;-72
2020/12/01 02:52:41;;;;;;;80.97;19.08;;;1.20;1.00;;;;;;5072106;28;20212;-72
2020/12/01 02:55:08;;;;;;;85.53;18.45;;;1.20;1.00;;;;;;5072469;28;20331;-72
2020/12/01 02:57:34;;;;;;;82.43;18.85;;;1.10;1.00;;;;;;5069943;28;20226;-72
2020/12/01 03:00:01;;;;;;;83.25;19.38;;;1.10;1.00;;;;;;5072123;28;20226;-72
2020/12/01 03:02:28;;;;;;;83.72;19.50;;;1.10;1.00;;;;;;5072149;28;20586;-72
2020/12/01 03:04:54;;;;;;;83.35;19.42;;;1.10;1.00;;;;;;5072026;28;20221;-72
2020/12/01 03:07:20;;;;;;;84.53;20.30;;;1.20;1.00;;;;;;5071888;28;20209;-72
2020/12/01 03:09:47;;;;;;;88.78;21.27;;;1.20;1.00;;;;;;5071489;28;20209;-72
2020/12/01 03:12:13;;;;;;;80.15;17.77;;;1.20;1.00;;;;;;5071924;28;20778;-72
2020/12/01 03:14:39;;;;;;;88.80;18.35;;;1.20;1.00;;;;;;5071911;28;20224;-72
2020/12/01 03:17:06;;;;;;;78.45;17.48;;;1.20;1.00;;;;;;5071757;28;20668;-72
2020/12/01 03:19:33;;;;;;;84.38;18.85;;;1.20;1.00;;;;;;5071718;28;20201;-72
2020/12/01 03:21:59;;;;;;;83.90;17.33;;;1.20;1.00;;;;;;5071789;28;20629;-72
2020/12/01 03:24:26;;;;;;;82.25;17.17;;;1.20;1.00;;;;;;5071929;28;20229;-72
2020/12/01 03:26:52;;;;;;;81.13;17.85;;;1.20;1.00;;;;;;5071709;28;20293;-72
2020/12/01 03:29:18;;;;;;;83.05;17.95;;;1.20;1.00;;;;;;5071652;28;20289;-72
2020/12/01 03:31:44;;;;;;;84.90;18.70;;;1.20;1.00;;;;;;5071678;28;20536;-72
2020/12/01 03:34:12;;;;;;;80.75;17.90;;;1.20;1.00;;;;;;5071463;28;20707;-72
2020/12/01 03:36:40;;;;;;;82.65;17.85;;;1.20;1.00;;;;;;5071837;28;20224;-72
2020/12/01 03:39:06;;;;;;;82.03;16.77;;;1.20;1.00;;;;;;5071411;28;20205;-72
2020/12/01 03:41:33;;;;;;;81.78;16.13;;;1.20;1.00;;;;;;5071935;28;20296;-72
2020/12/01 03:44:00;;;;;;;82.93;18.85;;;1.30;1.00;;;;;;5071396;28;20228;-73
2020/12/01 03:46:26;;;;;;;80.20;17.70;;;1.30;1.00;;;;;;5071597;28;20287;-73
2020/12/01 03:48:52;;;;;;;79.72;15.85;;;1.30;1.00;;;;;;5071158;28;20703;-73
2020/12/01 03:51:18;;;;;;;79.25;15.30;;;1.30;1.00;;;;;;5071811;28;20209;-73
2020/12/01 03:53:46;;;;;;;84.72;14.20;;;1.30;1.00;;;;;;5071270;28;20327;-73
2020/12/01 03:56:12;;;;;;;82.32;16.15;;;1.40;2.10;;;;;;5071457;28;20601;-74
2020/12/01 03:58:38;;;;;;;81.85;15.55;;;1.40;2.70;;;;;;5071469;28;20295;-74
2020/12/01 04:01:05;;;;;;;79.75;15.82;;;1.40;5.40;;;;;;5071144;28;20266;-73
2020/12/01 04:03:31;;;;;;;79.85;17.25;;;1.40;7.90;;;;;;5071188;28;20259;-74
2020/12/01 04:05:58;;;;;;;79.18;16.13;;;1.40;10.30;;;;;;5071562;28;20201;-74
2020/12/01 04:08:24;;;;;;;82.85;17.25;;;1.50;12.40;;;;;;5071542;28;20205;-74
2020/12/01 04:10:51;;;;;;;79.90;16.80;;;1.50;14.40;;;;;;5071308;28;20581;-74
2020/12/01 04:13:18;;;;;;;81.95;16.55;;;1.50;16.80;;;;;;5071192;28;20655;-74
2020/12/01 04:15:44;;;;;;;79.32;16.98;;;1.50;18.70;;;;;;5071136;28;20266;-74
2020/12/01 04:18:10;;;;;;;80.95;15.52;;;1.60;19.70;;;;;;5071340;28;20296;-74
2020/12/01 04:20:37;;;;;;;76.00;15.43;;;1.60;21.20;;;;;;5074267;28;20291;-74
2020/12/01 04:23:03;;;;;;;76.95;13.88;;;1.60;22.10;;;;;;5075192;28;20227;-74
2020/12/01 04:25:30;;;;;;;80.45;14.85;;;1.60;23.60;;;;;;5075206;28;20205;-73
2020/12/01 04:27:57;;;;;;;81.43;16.70;;;1.70;25.10;;;;;;5075096;28;20235;-73
2020/12/01 04:30:24;;;;;;;77.60;14.50;;;1.70;26.10;;;;;;5074742;28;20248;-74
2020/12/01 04:32:51;;;;;;;76.80;15.02;;;1.70;27.00;;;;;;5075032;28;20211;-74
2020/12/01 04:35:19;;;;;;;82.22;15.25;;;1.70;27.80;;;;;;5074940;28;20726;-73
2020/12/01 04:37:46;;;;;;;78.90;14.63;;;1.70;28.50;;;;;;5075001;28;20291;-73
2020/12/01 04:40:17;;;;;;;81.15;14.23;;;1.80;28.80;;;;;;5074755;28;20313;-73
2020/12/01 04:42:49;;;;;;;85.60;16.25;;;1.80;30.00;;;;;;5074844;28;20213;-73
2020/12/01 04:45:16;;;;;;;80.72;12.93;;;1.80;30.00;;;;;;5074751;28;20299;-73
2020/12/01 04:47:53;;;;;;;76.40;15.23;;;1.80;31.00;;;;;;5074897;28;20296;-73
2020/12/01 04:50:28;;;;;;;81.28;15.15;;;1.80;32.30;;;;;;5074662;28;20209;-73
2020/12/01 04:53:25;;;;;;;85.40;15.38;;;1.80;32.80;;;;;;5074370;28;20236;-73
2020/12/01 04:56:17;;;;;;;76.60;14.55;;;1.80;32.90;;;;;;5074685;28;20221;-73
2020/12/01 04:59:08;;;;;;;79.20;15.35;;;1.80;33.20;;;;;;5068770;28;20304;-73
2020/12/01 05:01:59;;;;;;;78.60;15.27;;;1.90;34.40;;;;;;5069434;28;20635;-73
2020/12/01 05:04:30;;;;;;;77.80;15.18;;;1.90;34.60;;;;;;5074526;28;20228;-73
2020/12/01 05:07:10;;;;;;;84.75;17.15;;;1.90;35.30;;;;;;5074501;28;20243;-73
2020/12/01 05:09:39;;;;;;;82.47;15.18;;;2.00;36.70;;;;;;5074279;28;20236;-73
2020/12/01 05:12:12;;;;;;;78.90;15.05;;;2.00;37.00;;;;;;5074137;28;20287;-73
2020/12/01 05:14:42;;;;;;;85.50;17.48;;;2.10;38.50;;;;;;5074416;28;20229;-73
2020/12/01 05:17:56;;;;;;;83.63;16.30;;;2.10;38.80;;;;;;5074282;28;20229;-73
2020/12/01 05:20:24;;;;;;;85.25;16.52;;;2.10;39.20;;;;;;5070186;28;20284;-73
2020/12/01 05:22:52;;;;;;;82.68;16.45;;;2.10;39.60;;;;;;5074143;28;20275;-73
2020/12/01 05:25:24;;;;;;;82.72;17.02;;;2.10;40.40;;;;;;5074199;28;20205;-73
2020/12/01 05:28:01;;;;;;;83.53;16.00;;;2.10;40.10;;;;;;5073943;28;20216;-73
2020/12/01 05:30:27;;;;;;;76.45;15.55;;;2.00;40.70;;;;;;5073666;28;20232;-73
2020/12/01 05:32:58;;;;;;;78.85;14.98;;;2.00;40.70;;;;;;5073434;28;20247;-73
2020/12/01 05:35:27;;;;;;;77.40;14.65;;;2.00;40.80;;;;;;5074048;28;20571;-73
2020/12/01 05:38:00;;;;;;;84.38;16.90;;;2.00;41.20;;;;;;5073979;28;20228;-73
2020/12/01 05:40:30;;;;;;;83.10;15.27;;;2.00;40.80;;;;;;5073584;28;20237;-73
2020/12/01 05:42:56;;;;;;;74.95;15.93;;;2.00;40.80;;;;;;5073448;28;20208;-73
2020/12/01 05:45:31;;;;;;;82.57;15.52;;;1.90;41.10;;;;;;5073563;28;20205;-73
2020/12/01 05:48:29;;;;;;;80.63;15.10;;;1.90;41.00;;;;;;5073616;28;20683;-73
2020/12/01 05:51:03;;;;;;;81.82;14.85;;;1.90;41.20;;;;;;5072724;28;20587;-73
2020/12/01 05:53:30;;;;;;;83.80;16.98;;;1.90;41.70;;;;;;5099194;22;20236;-71
2020/12/01 05:56:13;;;;;;;76.22;15.15;;;1.90;41.90;;;;;;5070214;28;20216;-71
2020/12/01 05:58:44;;;;;;;80.80;15.27;;;1.90;41.80;;;;;;5073387;28;20227;-71
2020/12/01 06:01:10;;;;;;;78.07;14.57;;;1.90;42.00;;;;;;5073222;28;20304;-71
2020/12/01 06:03:55;;;;;;;78.32;15.15;;;1.90;42.40;;;;;;5073335;28;20585;-71
2020/12/01 06:06:27;;;;;;;72.18;13.63;;;1.90;42.10;;;;;;5073204;28;20292;-71
2020/12/01 06:08:59;;;;;;;83.68;19.65;;;1.90;43.00;;;;;;5073208;28;20300;-71
2020/12/01 06:11:35;;;;;;;84.40;18.00;;;1.90;42.40;;;;;;5073340;28;20204;-71
2020/12/01 06:14:11;;;;;;;77.97;15.30;;;1.90;42.50;;;;;;5072970;28;20224;-71
2020/12/01 06:16:45;;;;;;;81.18;15.75;;;1.90;43.00;;;;;;5073018;28;20228;-71
2020/12/01 06:19:28;;;;;;;79.88;15.40;;;1.90;43.70;;;;;;5072992;28;20577;-72
2020/12/01 06:22:46;;;;;;;79.68;15.02;;;1.90;42.90;;;;;;5073194;28;20628;-71
2020/12/01 06:25:29;;;;;;;81.03;14.73;;;1.90;42.80;;;;;;5072095;28;20610;-71
2020/12/01 06:28:28;;;;;;;77.25;16.05;;;1.80;43.50;;;;;;5072899;28;20641;-71
2020/12/01 06:31:05;;;;;;;83.05;14.73;;;1.80;43.30;;;;;;5033706;28;20729;-71
2020/12/01 06:34:02;;;;;;;86.47;15.25;;;1.90;43.60;;;;;;5072506;28;20551;-71
2020/12/01 06:37:23;;;;;;;73.43;14.52;;;1.80;43.90;;;;;;5072628;28;20236;-71
2020/12/01 06:40:09;;;;;;;79.63;15.32;;;1.80;44.10;;;;;;5072292;28;20205;-72
2020/12/01 06:42:39;;;;;;;77.20;13.85;;;1.80;44.00;;;;;;5062816;28;20208;-71
2020/12/01 06:45:14;;;;;;;74.78;15.10;;;1.80;45.00;;;;;;5072208;28;20738;-71
2020/12/01 06:47:40;;;;;;;81.57;13.50;;;1.80;44.30;;;;;;5072297;28;20227;-71
2020/12/01 06:50:16;;;;;;;80.53;15.35;;;1.80;44.60;;;;;;5071569;28;20218;-71
2020/12/01 06:52:53;;;;;;;81.10;14.65;;;1.80;44.70;;;;;;5072508;28;20207;-71
2020/12/01 06:55:54;;;;;;;83.53;14.65;;;1.80;45.60;;;;;;5071998;28;20658;-71
2020/12/01 06:58:34;;;;;;;76.75;14.27;;;1.80;46.50;;;;;;5072123;28;20231;-71
2020/12/01 07:01:23;;;;;;;84.25;15.88;;;1.80;45.50;;;;;;5072178;28;20586;-71
2020/12/01 07:04:30;;;;;;;82.82;15.05;;;1.80;45.60;;;;;;5071850;28;20278;-71
2020/12/01 07:06:58;;;;;;;84.93;15.57;;;1.80;46.80;;;;;;5071956;28;20196;-71
2020/12/01 07:09:28;;;;;;;82.03;14.45;;;1.80;46.00;;;;;;5071862;28;20211;-71
2020/12/01 07:12:04;;;;;;;83.65;14.93;;;1.80;46.10;;;;;;5072229;28;20295;-71
2020/12/01 07:14:41;;;;;;;77.38;14.13;;;1.80;47.20;;;;;;5072072;28;20559;-71
2020/12/01 07:17:28;;;;;;;79.75;14.95;;;1.80;46.10;;;;;;5071637;28;20225;-71
2020/12/01 07:19:57;;;;;;;83.45;16.35;;;1.80;46.40;;;;;;5071371;28;20208;-71
2020/12/01 07:22:36;;;;;;;81.82;14.95;;;1.80;47.80;;;;;;5071723;28;20243;-71
2020/12/01 07:25:11;;;;;;;81.40;15.43;;;1.80;46.60;;;;;;5071707;28;20228;-71
2020/12/01 07:27:48;;;;;;;82.40;16.55;;;1.80;46.90;;;;;;5071739;28;20401;-71
2020/12/01 07:30:20;;;;;;;88.07;15.40;;;1.90;47.30;;;;;;5071781;28;20205;-71
2020/12/01 07:32:59;;;;;;;81.50;16.20;;;1.90;47.40;;;;;;5071818;28;20201;-71
2020/12/01 07:35:34;;;;;;;82.57;14.93;;;1.90;47.40;;;;;;5071302;28;20671;-71
2020/12/01 07:38:08;;;;;;;86.13;16.83;;;1.90;47.90;;;;;;5072109;28;20578;-71
2020/12/01 07:40:43;;;;;;;85.70;16.02;;;1.90;48.20;;;;;;5071652;28;20208;-71
2020/12/01 07:43:14;;;;;;;86.35;18.13;;;1.90;48.50;;;;;;5071644;28;20299;-71
2020/12/01 07:45:41;;;;;;;84.47;18.60;;;1.90;48.40;;;;;;5071921;28;20220;-71
2020/12/01 07:48:13;;;;;;;84.40;17.00;;;1.90;48.40;;;;;;5071516;28;20215;-71
2020/12/01 07:50:39;;;;;;;82.47;16.05;;;1.90;49.20;;;;;;5071272;28;20284;-71
2020/12/01 07:53:09;;;;;;;98.68;20.80;;;2.00;49.20;;;;;;5071582;28;20239;-71
2020/12/01 07:55:40;;;;;;;103.82;21.23;;;2.00;48.80;;;;;;5070897;28;20258;-71
2020/12/01 07:58:15;;;;;;;90.28;18.83;;;2.00;49.50;;;;;;5071857;28;20208;-72
2020/12/01 08:00:47;;;;;;;90.97;18.25;;;2.00;49.00;;;;;;5069519;28;20212;-71
2020/12/01 08:03:15;;;;;;;84.95;19.02;;;2.00;49.10;;;;;;5071184;28;20266;-73
2020/12/01 08:05:41;;;;;;;98.88;21.63;;;2.10;50.10;;;;;;5070876;28;20431;-71
2020/12/01 08:08:14;;;;;;;92.28;19.15;;;2.10;49.50;;;;;;5070936;28;20209;-71
2020/12/01 08:10:42;;;;;;;88.68;18.30;;;2.10;49.50;;;;;;5069988;28;20233;-71
2020/12/01 08:13:08;;;;;;;85.53;20.02;;;2.10;49.90;;;;;;5070824;28;20213;-72
2020/12/01 08:15:37;;;;;;;101.15;22.65;;;2.10;50.30;;;;;;5069362;28;20274;-72
2020/12/01 08:18:06;;;;;;;94.80;24.10;;;2.20;50.10;;;;;;5070097;28;20208;-72
2020/12/01 08:20:33;;;;;;;110.97;28.27;;;2.20;50.40;;;;;;5070253;28;20719;-71
2020/12/01 08:23:07;;;;;;;113.82;26.80;;;2.20;51.60;;;;;;5070430;28;20209;-72
2020/12/01 08:25:35;;;;;;;93.22;22.75;;;2.20;50.50;;;;;;5071050;28;20217;-72
2020/12/01 08:28:16;;;;;;;98.72;19.20;;;2.20;51.00;;;;;;5070838;28;20212;-71
2020/12/01 08:30:52;;;;;;;93.45;21.73;;;2.20;51.30;;;;;;5070640;28;20259;-72
2020/12/01 08:33:28;;;;;;;93.35;18.70;;;2.20;51.30;;;;;;5070911;28;20307;-71
2020/12/01 08:36:02;;;;;;;108.32;21.83;;;2.30;51.50;;;;;;5070486;28;20293;-72
2020/12/01 08:38:47;;;;;;;90.18;16.95;;;2.30;51.40;;;;;;5070673;28;20205;-72
2020/12/01 08:41:26;;;;;;;91.78;19.77;;;2.30;51.80;;;;;;5070348;28;20209;-72
2020/12/01 08:43:57;;;;;;;125.97;29.75;;;2.30;51.60;;;;;;5069375;28;20437;-71
2020/12/01 08:46:25;;;;;;;105.90;22.05;;;2.30;51.50;;;;;;5070245;28;20205;-72
2020/12/01 08:49:06;;;;;;;96.75;20.55;;;2.30;52.30;;;;;;5070378;28;20263;-73
2020/12/01 08:51:35;;;;;;;96.05;17.73;;;2.30;52.80;;;;;;5070571;28;20205;-73
2020/12/01 08:54:15;;;;;;;94.65;17.58;;;2.30;52.80;;;;;;5070778;28;20298;-73
2020/12/01 08:57:01;;;;;;;88.03;18.70;;;2.30;53.20;;;;;;5071029;28;20235;-71
2020/12/01 08:59:32;;;;;;;103.13;19.40;;;2.40;54.10;;;;;;5070194;28;20270;-71
2020/12/01 09:02:01;;;;;;;96.45;19.48;;;2.40;54.10;;;;;;5070876;28;20716;-72
2020/12/01 09:04:31;;;;;;;96.28;17.50;;;2.40;54.60;;;;;;5070490;28;20564;-70
2020/12/01 09:07:08;;;;;;;97.97;19.92;;;2.40;55.00;;;;;;5072664;28;20215;-70
2020/12/01 09:09:35;;;;;;;94.25;21.33;;;2.50;55.80;;;;;;5073546;28;20300;-71
2020/12/01 09:15:16;;;;;;;106.57;19.45;;;2.50;55.40;;;;;;5073731;28;20258;-72
2020/12/01 09:17:55;;;;;;;85.93;17.42;;;2.50;55.50;;;;;;5074321;28;20201;-74
2020/12/01 09:23:14;;;;;;;91.25;19.88;;;2.50;55.40;;;;;;5073442;28;20209;-73
2020/12/01 09:25:42;;;;;;;98.60;20.60;;;2.50;55.80;;;;;;5073725;28;20248;-75
2020/12/01 09:28:14;;;;;;;93.30;18.98;;;2.50;55.60;;;;;;5073778;28;20213;-72
2020/12/01 09:30:41;;;;;;;94.82;19.35;;;2.50;55.40;;;;;;5073579;28;20205;-72
2020/12/01 09:33:11;;;;;;;104.90;19.85;;;2.60;55.90;;;;;;5074003;28;20290;-72
2020/12/01 09:35:38;;;;;;;119.60;21.95;;;2.60;56.70;;;;;;5073876;28;20319;-72
2020/12/01 09:38:05;;;;;;;97.93;21.08;;;2.70;56.70;;;;;;5073558;28;20675;-72
2020/12/01 09:40:33;;;;;;;98.70;20.13;;;2.70;56.90;;;;;;5073760;28;20616;-72
2020/12/01 09:43:06;;;;;;;91.28;18.55;;;2.70;57.20;;;;;;5073175;28;20209;-73
2020/12/01 09:45:35;;;;;;;121.18;21.17;;;2.80;57.10;;;;;;5073479;28;20224;-70
2020/12/01 09:48:05;;;;;;;95.18;19.73;;;2.80;57.50;;;;;;5073527;28;20729;-72
2020/12/01 09:50:34;;;;;;;108.35;21.80;;;2.80;57.90;;;;;;5073422;28;20208;-72
2020/12/01 09:55:59;;;;;;;114.85;20.98;;;3.00;58.10;;;;;;5073656;28;20233;-74
2020/12/01 09:58:49;;;;;;;160.68;25.55;;;3.00;57.60;;;;;;5073468;28;20212;-75
2020/12/01 10:09:42;;;;;;;94.65;17.63;;;3.00;58.30;;;;;;5072581;28;20230;-72
2020/12/01 10:12:23;;;;;;;95.90;19.88;;;3.00;58.50;;;;;;5076313;28;20209;-74
2020/12/01 10:25:59;;;;;;;83.47;17.38;;;3.00;60.80;;;;;;5071132;28;20709;-77
2020/12/01 10:36:59;;;;;;;110.10;20.60;;;3.20;62.10;;;;;;5055580;28;20738;-74
2020/12/01 10:39:26;;;;;;;117.10;22.98;;;3.30;62.70;;;;;;5068699;28;20221;-75
2020/12/01 10:41:53;;;;;;;127.60;23.33;;;3.30;62.60;;;;;;5068958;28;20259;-73
2020/12/01 10:44:20;;;;;;;105.70;22.20;;;3.40;62.70;;;;;;5069676;28;20225;-74
2020/12/01 10:46:48;;;;;;;119.15;21.80;;;3.40;62.90;;;;;;5069002;28;20300;-75
2020/12/01 10:49:15;;;;;;;114.60;21.30;;;3.40;62.80;;;;;;5070526;28;20208;-74
2020/12/01 10:51:41;;;;;;;130.63;19.67;;;3.40;62.40;;;;;;5069464;28;20254;-75
2020/12/01 10:54:08;;;;;;;125.53;21.77;;;3.40;61.90;;;;;;5070452;28;20323;-75
2020/12/01 10:56:34;;;;;;;115.32;22.40;;;3.40;61.80;;;;;;5069763;28;20316;-75
2020/12/01 10:59:02;;;;;;;117.13;22.88;;;3.40;61.60;;;;;;5067033;28;20208;-75
2020/12/01 11:01:31;;;;;;;109.60;20.85;;;3.40;60.80;;;;;;5068752;28;20209;-75
2020/12/01 11:03:58;;;;;;;139.75;24.05;;;3.40;60.40;;;;;;5068465;28;20229;-75
2020/12/01 11:06:24;;;;;;;162.52;24.58;;;3.40;60.60;;;;;;5068683;28;20198;-76
2020/12/01 11:08:50;;;;;;;175.75;25.67;;;3.40;59.60;;;;;;5069335;28;20312;-75
2020/12/01 11:11:18;;;;;;;86.45;15.50;;;3.40;58.20;;;;;;5068852;28;20296;-73
2020/12/01 11:13:44;;;;;;;96.80;18.13;;;3.30;57.70;;;;;;5068140;28;20209;-73
2020/12/01 11:16:12;;;;;;;106.00;17.70;;;3.40;56.30;;;;;;5068226;28;20307;-74
2020/12/01 11:18:38;;;;;;;110.57;18.00;;;3.40;55.60;;;;;;5068287;28;20660;-74
2020/12/01 11:21:05;;;;;;;102.38;20.40;;;3.40;55.50;;;;;;5067757;28;20211;-74
2020/12/01 11:23:31;;;;;;;119.20;19.85;;;3.40;54.50;;;;;;5067833;28;20208;-75
2020/12/01 11:25:57;;;;;;;111.47;18.80;;;3.50;53.60;;;;;;5068750;28;20205;-74
2020/12/01 11:28:24;;;;;;;110.07;19.73;;;3.50;53.30;;;;;;5068292;28;20699;-75
2020/12/01 11:30:50;;;;;;;108.68;17.75;;;3.50;53.50;;;;;;5067657;28;20380;-75
2020/12/01 11:33:18;;;;;;;100.22;18.23;;;3.50;52.90;;;;;;5068136;28;20434;-75
2020/12/01 11:35:44;;;;;;;182.35;20.83;;;3.50;50.60;;;;;;5068117;28;20279;-75
2020/12/01 11:38:10;;;;;;;106.78;17.48;;;3.50;49.30;;;;;;5068693;28;20215;-75
2020/12/01 11:40:37;;;;;;;155.30;22.48;;;3.40;49.20;;;;;;5068825;28;20212;-74
2020/12/01 11:43:03;;;;;;;121.63;19.30;;;3.40;48.80;;;;;;5068127;28;20201;-74
2020/12/01 11:45:30;;;;;;;97.55;19.05;;;3.40;48.60;;;;;;5068517;28;20232;-74
2020/12/01 11:47:56;;;;;;;93.03;19.73;;;3.30;48.40;;;;;;5067817;28;20287;-74
2020/12/01 11:50:23;;;;;;;165.68;27.05;;;3.40;47.80;;;;;;5068361;28;20229;-74
2020/12/01 11:52:50;;;;;;;102.13;19.33;;;3.30;46.40;;;;;;5068655;28;20200;-75
2020/12/01 11:55:16;;;;;;;132.80;24.88;;;3.30;46.10;;;;;;5068078;28;20260;-74
2020/12/01 11:57:42;;;;;;;92.45;23.25;;;3.30;47.10;;;;;;5067680;28;20243;-75
2020/12/01 12:00:10;;;;;;;96.57;23.95;;;3.20;47.60;;;;;;5066981;28;20668;-74
2020/12/01 12:02:37;;;;;;;115.65;23.55;;;3.20;48.50;;;;;;5094669;22;20233;-70
2020/12/01 12:05:04;;;;;;;100.25;22.48;;;3.20;50.20;;;;;;5071023;28;20293;-71
2020/12/01 12:07:31;;;;;;;132.48;25.27;;;3.20;51.80;;;;;;5070958;28;20200;-70
2020/12/01 12:09:58;;;;;;;105.10;23.52;;;3.20;52.60;;;;;;5071014;28;20300;-70
2020/12/01 12:12:24;;;;;;;102.88;22.30;;;3.20;54.00;;;;;;5071218;28;20205;-70
2020/12/01 12:14:51;;;;;;;97.88;21.70;;;3.20;55.50;;;;;;5071049;28;20590;-70
2020/12/01 12:17:17;;;;;;;107.10;24.17;;;3.20;57.00;;;;;;5070912;28;20239;-70
2020/12/01 12:19:44;;;;;;;96.75;21.25;;;3.20;57.60;;;;;;5070698;28;20205;-70
2020/12/01 12:22:10;;;;;;;112.40;21.90;;;3.30;58.20;;;;;;5070972;28;20209;-70
2020/12/01 12:24:38;;;;;;;108.57;20.77;;;3.30;58.80;;;;;;5070952;28;20240;-71
2020/12/01 12:27:04;;;;;;;129.43;22.00;;;3.40;59.20;;;;;;5070706;28;20209;-70
2020/12/01 12:29:30;;;;;;;105.40;21.63;;;3.40;60.00;;;;;;5070714;28;20209;-71
2020/12/01 12:31:57;;;;;;;123.50;22.58;;;3.50;59.90;;;;;;5070788;28;20234;-70
2020/12/01 12:34:23;;;;;;;124.57;21.92;;;3.50;59.30;;;;;;5070824;28;20221;-71
2020/12/01 12:36:49;;;;;;;110.50;23.17;;;3.60;59.10;;;;;;5070752;28;20231;-71
2020/12/01 12:39:16;;;;;;;128.00;24.17;;;3.60;59.80;;;;;;5070811;28;20227;-71
2020/12/01 12:41:43;;;;;;;160.60;22.67;;;3.60;57.60;;;;;;5073539;28;20302;-71
2020/12/01 12:44:09;;;;;;;105.22;19.05;;;3.70;57.30;;;;;;5074225;28;20229;-71
2020/12/01 12:46:37;;;;;;;99.95;20.30;;;3.70;58.10;;;;;;5074910;28;20201;-70
2020/12/01 12:49:03;;;;;;;121.65;20.80;;;3.70;58.50;;;;;;5074526;28;20205;-71
2020/12/01 12:51:30;;;;;;;107.85;20.58;;;3.70;58.30;;;;;;5074322;28;20726;-70
2020/12/01 12:53:56;;;;;;;105.70;21.13;;;3.70;59.10;;;;;;5074247;28;20294;-71
2020/12/01 12:56:23;;;;;;;101.97;21.98;;;3.70;59.70;;;;;;5074356;28;20231;-71
2020/12/01 12:58:52;;;;;;;115.75;23.10;;;3.80;59.80;;;;;;5074051;28;20633;-71
2020/12/01 13:01:18;;;;;;;112.82;23.13;;;3.80;59.80;;;;;;5074256;28;20208;-71
2020/12/01 13:03:45;;;;;;;137.35;23.92;;;3.80;59.00;;;;;;5073757;28;20233;-71
2020/12/01 13:06:11;;;;;;;112.90;22.45;;;3.90;57.60;;;;;;5073690;28;20205;-71
2020/12/01 13:08:37;;;;;;;146.45;23.35;;;3.90;56.20;;;;;;5074267;28;20200;-71
2020/12/01 13:11:04;;;;;;;112.22;23.05;;;3.90;53.90;;;;;;5073796;28;20205;-71
2020/12/01 13:13:30;;;;;;;136.00;22.70;;;3.80;52.60;;;;;;5073866;28;20712;-71
2020/12/01 13:15:57;;;;;;;103.43;21.05;;;3.80;50.10;;;;;;5073879;28;20487;-71
2020/12/01 13:18:24;;;;;;;112.43;26.10;;;3.80;48.10;;;;;;5073880;28;20235;-71
2020/12/01 13:20:50;;;;;;;104.72;23.73;;;3.70;43.70;;;;;;5073790;28;20211;-70
2020/12/01 13:23:17;;;;;;;103.82;24.88;;;3.70;40.30;;;;;;5073790;28;20231;-71
2020/12/01 13:25:43;;;;;;;96.10;22.75;;;3.60;38.10;;;;;;5073887;28;20212;-70
2020/12/01 13:28:09;;;;;;;116.55;23.48;;;3.60;36.10;;;;;;5073683;28;20211;-70
2020/12/01 13:30:35;;;;;;;95.05;22.65;;;3.60;33.40;;;;;;5073597;28;20676;-71